Marietta, OK (73448)

5:28 PM CDT on July 23, 2016 (GMT -0500)
Ardmore Downtown | | Change Station
Active Advisory: Heat Advisory

Elev 843 ft 34.15 °N, 97.12 °W | Updated 13 minutes ago

Scattered Clouds
Scattered Clouds
99 °F
Feels Like 99 °F
N
8
Wind Variable Wind from SSW

Today
High -- | Low -- °F
--% Chance of Precip.
Yesterday
High -- | Low -- °F
Precip. -- in
Pressure 29.88 in
Visibility 10.0 miles
Clouds Scattered Clouds 7000 ft
Heat Index 99 °F
Dew Point 61 °F
Humidity 29%
Rainfall 0.00 in
Snow Depth Not available.
6:34 AM 8:35 PM
Waning Gibbous, 82% visible
METAR K1F0 232215Z AUTO 20007KT 10SM SCT070 37/16 A2988 RMK AO2
Pressure 29.88 in
Visibility 10.0 miles
Clouds Scattered Clouds 7000 ft
Heat Index 99 °F
Dew Point 61 °F
Humidity 29%
Rainfall 0.00 in
Snow Depth Not available.
6:34 AM 8:35 PM
Waning Gibbous, 82% visible
METAR K1F0 232215Z AUTO 20007KT 10SM SCT070 37/16 A2988 RMK AO2

10-Day Weather Forecast

Almanac

Astronomy

Jul. 23, 2016 Rise Set
Actual Time
Civil Twilight
Nautical Twilight
Astronomical Twilight
Moon
Length of Visible Light
Length of Day
Tomorrow will be .
, % of the Moon is Illuminated

Today's Extremes

State Highs State Lows

Community

WunderPhotos

Upload Photos

1,926,948 photos uploaded!

WunderBlog® & News

Nearby

Air Quality

  Air Quality AQ Index Pollutant
Not available.

Snow Depth

Station Depth Elevation

Earthquake Activity

City Distance Mag. Time & Date
Minimum magnitude displayed is 2.5.

Coastal Water Temperatures

Place Temperature

Stations

Nearby Weather Stations

Station Location Temp. Windchill Dew Point Humidity Wind Precip. Elev Updated Type
                   

Watches & Warnings

Heat Advisory
Issued: 3:03 PM CDT Jul. 23, 2016 – National Weather Service

... Heat advisory remains in effect until 8 PM CDT Sunday...

* temperature... afternoon and early evening heat index values
105 to 110.

* Impacts... heat exhaustion or heat stroke can quickly occur to
anyone working or participating in outdoor activities.

Precautionary/preparedness actions...

Take extra precautions if you work or spend time outside. When
possible... reschedule strenuous activities to early morning or
evening. Know the signs and symptoms of heat exhaustion and heat
stroke. Wear lightweight and loose fitting clothing when possible
and drink plenty of water.

To reduce risk during outdoor work the occupational safety and
health administration recommends scheduling frequent rest breaks
in shaded or air conditioned environments. Anyone overcome by
heat should be moved to a cool and shaded location. Heat stroke
is an emergency... call 9 1 1.